Terminal Aerodrome Forecast
Issued by NWS Greer, SC

Home | Current Version | Previous Version | Text Only | Print | Product List | Glossary On
Versions: 1 2 3 4 5 6 7 8 9 10 11 12 13 14 15 16 17 18 19 20 21 22 23 24 25 26 27 28 29 30 31
000
FTUS42 KGSP 300520
TAFAVL
TAF
KAVL 300520Z 3006/0106 20003KT P6SM FEW045
      TEMPO 3006/3008 VRB03KT -SHRA BKN045
     FM301300 31006KT P6SM BKN045
     FM301900 22006G15KT P6SM BKN045 PROB30 3019/3023 4SM TSRA
      BKN040CB
     FM010000 33006KT P6SM -SHRA VCTS BKN045CB
     FM010400 33006KT P6SM BKN045=

USA.gov is the U.S. government's official web portal to all federal, state and local government web resources and services.